Time;durP1;ratioP1;P1;durP2;ratioP2;P2;SDS_P1;SDS_P2;PMS_P1;PMS_P2;Temp;Humidity;BMP_temperature;BMP_pressure;BME280_temperature;BME280_humidity;BME280_pressure;Samples;Min_cycle;Max_cycle;Signal;HPM_P1;HPM_P2
2021/04/28 00:00:41;;;;;;;1999.90;999.90;;;14.70;99.90;;;;;;5053506;28;20165;-40
2021/04/28 00:03:09;;;;;;;1999.90;999.90;;;14.70;99.90;;;;;;5053447;28;20256;-39
2021/04/28 00:05:37;;;;;;;1999.90;999.90;;;14.70;99.90;;;;;;5053413;28;20172;-40
2021/04/28 00:08:06;;;;;;;1999.90;999.90;;;14.70;99.90;;;;;;5053319;28;20619;-39
2021/04/28 00:10:40;;;;;;;1999.90;999.90;;;14.70;99.90;;;;;;5053390;28;20169;-41
2021/04/28 00:13:12;;;;;;;1999.90;999.90;;;14.70;99.90;;;;;;5053321;28;20164;-40
2021/04/28 00:15:43;;;;;;;1999.90;999.90;;;14.80;99.90;;;;;;5053369;28;20150;-39
2021/04/28 00:18:10;;;;;;;1999.90;999.90;;;14.70;99.90;;;;;;5052979;28;20554;-39
2021/04/28 00:20:39;;;;;;;1999.90;999.90;;;14.70;99.90;;;;;;5053059;28;20176;-41
2021/04/28 00:23:08;;;;;;;1999.90;999.90;;;14.60;99.90;;;;;;5053181;28;20189;-42
2021/04/28 00:25:36;;;;;;;1999.90;999.90;;;14.60;99.90;;;;;;5053147;28;20173;-39
2021/04/28 00:28:03;;;;;;;1999.90;999.90;;;14.60;99.90;;;;;;5052991;28;20172;-39
2021/04/28 00:30:30;;;;;;;1999.90;999.90;;;14.60;99.90;;;;;;5053064;28;20166;-39
2021/04/28 00:32:58;;;;;;;1999.90;999.90;;;14.60;99.90;;;;;;5052993;28;20169;-39
2021/04/28 00:35:25;;;;;;;1999.90;999.90;;;14.50;99.90;;;;;;5052951;28;20169;-39
2021/04/28 00:37:53;;;;;;;1999.90;999.90;;;14.50;99.90;;;;;;5052963;28;20185;-39
2021/04/28 00:40:24;;;;;;;1999.90;999.90;;;14.50;99.90;;;;;;5052885;28;20643;-40
2021/04/28 00:42:51;;;;;;;1999.90;999.90;;;14.60;99.90;;;;;;5052933;28;20168;-40
2021/04/28 00:45:20;;;;;;;1999.90;999.90;;;14.70;99.90;;;;;;5052928;28;20161;-42
2021/04/28 00:47:47;;;;;;;1999.90;999.90;;;14.60;99.90;;;;;;5051699;28;20311;-42
2021/04/28 00:50:18;;;;;;;1999.90;999.90;;;14.70;99.90;;;;;;5052881;28;20558;-40
2021/04/28 00:52:46;;;;;;;1999.90;999.90;;;14.70;99.90;;;;;;5052939;28;20162;-42
2021/04/28 00:55:14;;;;;;;1999.90;999.90;;;14.60;99.90;;;;;;5052799;28;20180;-43
2021/04/28 00:57:41;;;;;;;1999.90;999.90;;;14.70;99.90;;;;;;5052696;28;20165;-44
2021/04/28 01:00:14;;;;;;;1999.90;999.90;;;14.60;99.90;;;;;;5052579;28;20221;-46
2021/04/28 01:02:42;;;;;;;1999.90;999.90;;;14.60;99.90;;;;;;5052587;28;20248;-42
2021/04/28 01:05:11;;;;;;;1999.90;999.90;;;14.60;99.90;;;;;;5052698;28;20161;-40
2021/04/28 01:07:38;;;;;;;1999.90;999.90;;;14.60;99.90;;;;;;5052699;28;20191;-41
2021/04/28 01:10:08;;;;;;;1999.90;999.90;;;14.50;99.90;;;;;;5052523;28;20232;-47
2021/04/28 01:12:37;;;;;;;1999.90;999.90;;;14.50;99.90;;;;;;5052674;28;20525;-42
2021/04/28 01:15:07;;;;;;;1999.90;999.90;;;14.40;99.90;;;;;;5052558;28;20165;-41
2021/04/28 01:17:34;;;;;;;1999.90;999.90;;;14.40;99.90;;;;;;5052577;28;20555;-39
2021/04/28 01:20:02;;;;;;;1999.90;999.90;;;14.40;99.90;;;;;;5052542;28;20628;-45
2021/04/28 01:22:40;;;;;;;1999.90;999.90;;;14.40;99.90;;;;;;5052586;28;20165;-40
2021/04/28 01:25:10;;;;;;;1999.90;999.90;;;14.40;99.90;;;;;;5052531;28;20720;-39
2021/04/28 01:27:40;;;;;;;1999.90;999.90;;;14.30;99.90;;;;;;5052479;28;20193;-39
2021/04/28 01:30:08;;;;;;;1999.90;999.90;;;14.40;99.90;;;;;;5052320;28;20683;-39
2021/04/28 01:32:40;;;;;;;1999.90;999.90;;;14.40;99.90;;;;;;5056133;28;20721;-39
2021/04/28 01:35:09;;;;;;;1999.90;999.90;;;14.40;99.90;;;;;;5056337;28;20294;-39
2021/04/28 01:37:36;;;;;;;1999.90;999.90;;;14.40;99.90;;;;;;5056278;28;20214;-39
2021/04/28 01:40:05;;;;;;;1999.90;999.90;;;14.40;99.90;;;;;;5056121;28;20188;-39
2021/04/28 01:42:32;;;;;;;1999.90;999.90;;;14.30;99.90;;;;;;5056110;28;20199;-39
2021/04/28 01:45:01;;;;;;;1999.90;999.90;;;14.40;99.90;;;;;;5056068;28;20177;-41
2021/04/28 01:47:28;;;;;;;1999.90;999.90;;;14.40;99.90;;;;;;5056029;28;20186;-40
2021/04/28 01:49:55;;;;;;;1999.90;999.90;;;14.40;99.90;;;;;;5055908;28;20226;-40
2021/04/28 01:52:22;;;;;;;1999.90;999.90;;;14.40;99.90;;;;;;5056112;28;20177;-40
2021/04/28 01:54:49;;;;;;;1999.90;999.90;;;14.30;99.90;;;;;;5055978;28;20260;-39
2021/04/28 01:57:17;;;;;;;1999.90;999.90;;;14.30;99.90;;;;;;5055948;28;20501;-39
2021/04/28 01:59:44;;;;;;;1999.90;999.90;;;14.30;99.90;;;;;;5055632;28;20305;-40
2021/04/28 02:02:11;;;;;;;1999.90;999.90;;;14.40;99.90;;;;;;5055797;28;20525;-39
2021/04/28 02:04:39;;;;;;;1999.90;999.90;;;14.30;99.90;;;;;;5055812;28;20184;-39
2021/04/28 02:07:06;;;;;;;1999.90;999.90;;;14.30;99.90;;;;;;5055747;28;20204;-39
2021/04/28 02:09:33;;;;;;;1999.90;999.90;;;14.30;99.90;;;;;;5055598;28;20197;-39
2021/04/28 02:12:00;;;;;;;1999.90;999.90;;;14.30;99.90;;;;;;5055600;28;20165;-39
2021/04/28 02:14:30;;;;;;;1999.90;999.90;;;14.40;99.90;;;;;;5055602;28;20572;-39
2021/04/28 02:16:58;;;;;;;1999.90;999.90;;;14.30;99.90;;;;;;5055494;28;20606;-39
2021/04/28 02:19:25;;;;;;;1999.90;999.90;;;14.30;99.90;;;;;;5055665;28;20252;-39
2021/04/28 02:21:53;;;;;;;1999.90;999.90;;;14.20;99.90;;;;;;5055522;28;20161;-39
2021/04/28 02:24:20;;;;;;;1999.90;999.90;;;14.20;99.90;;;;;;5055358;28;20190;-39
2021/04/28 02:26:53;;;;;;;1999.90;999.90;;;14.20;99.90;;;;;;5055329;28;20177;-40
2021/04/28 02:29:20;;;;;;;1999.90;999.90;;;14.10;99.90;;;;;;5055233;28;20239;-39
2021/04/28 02:31:47;;;;;;;1999.90;999.90;;;14.10;99.90;;;;;;5055270;28;20251;-39
2021/04/28 02:34:14;;;;;;;1999.90;999.90;;;14.10;99.90;;;;;;5055161;28;20173;-41
2021/04/28 02:36:44;;;;;;;1999.90;999.90;;;14.10;99.90;;;;;;5055132;28;20173;-40
2021/04/28 02:39:21;;;;;;;1999.90;999.90;;;14.10;99.90;;;;;;5055095;28;20719;-41
2021/04/28 02:41:49;;;;;;;1999.90;999.90;;;14.00;99.90;;;;;;5054761;28;20169;-39
2021/04/28 02:44:19;;;;;;;1999.90;999.90;;;14.10;99.90;;;;;;5054975;28;20182;-40
2021/04/28 02:46:47;;;;;;;1999.90;999.90;;;14.10;99.90;;;;;;5054923;28;20177;-42
2021/04/28 02:49:15;;;;;;;1999.90;999.90;;;14.10;99.90;;;;;;5054839;28;20219;-40
2021/04/28 02:51:43;;;;;;;1999.90;999.90;;;14.10;99.90;;;;;;5054847;28;20628;-39
2021/04/28 02:54:12;;;;;;;1999.90;999.90;;;14.00;99.90;;;;;;5054823;28;20625;-40
2021/04/28 02:56:40;;;;;;;1999.90;999.90;;;14.00;99.90;;;;;;5054735;28;20243;-39
2021/04/28 02:59:07;;;;;;;1999.90;999.90;;;14.00;99.90;;;;;;5054476;28;20248;-39
2021/04/28 03:01:35;;;;;;;1999.90;999.90;;;14.00;99.90;;;;;;5054632;28;20180;-39
2021/04/28 03:04:04;;;;;;;1999.90;999.90;;;14.00;99.90;;;;;;5054921;28;20177;-40
2021/04/28 03:06:31;;;;;;;1999.90;999.90;;;14.10;99.90;;;;;;5054587;28;20201;-39
2021/04/28 03:08:59;;;;;;;1999.90;999.90;;;14.00;99.90;;;;;;5054537;28;20199;-39
2021/04/28 03:11:26;;;;;;;1999.90;999.90;;;13.90;99.90;;;;;;5054583;28;20169;-40
2021/04/28 03:13:54;;;;;;;1999.90;999.90;;;13.80;99.90;;;;;;5054401;28;20313;-40
2021/04/28 03:16:21;;;;;;;1999.90;999.90;;;13.90;99.90;;;;;;5054442;28;20559;-43
2021/04/28 03:18:48;;;;;;;1999.90;999.90;;;13.80;99.90;;;;;;5054354;28;20173;-39
2021/04/28 03:21:18;;;;;;;1999.90;999.90;;;13.70;99.90;;;;;;5054285;28;20161;-42
2021/04/28 03:23:46;;;;;;;1999.90;999.90;;;13.70;99.90;;;;;;5054258;28;20655;-41
2021/04/28 03:26:13;;;;;;;1999.90;999.90;;;13.70;99.90;;;;;;5054117;28;20177;-39
2021/04/28 03:28:40;;;;;;;1999.90;999.90;;;13.70;99.90;;;;;;5054077;28;20334;-41
2021/04/28 03:31:07;;;;;;;1999.90;999.90;;;13.80;99.90;;;;;;5054024;28;20213;-40
2021/04/28 03:33:35;;;;;;;1999.90;999.90;;;13.80;99.90;;;;;;5054042;28;20572;-42
2021/04/28 03:36:02;;;;;;;1999.90;999.90;;;13.70;99.90;;;;;;5054522;28;20573;-43
2021/04/28 03:38:29;;;;;;;1999.90;999.90;;;13.70;99.90;;;;;;5054089;28;20157;-40
2021/04/28 03:40:57;;;;;;;1999.90;999.90;;;13.70;99.90;;;;;;5053853;28;20184;-40
2021/04/28 03:43:24;;;;;;;1999.90;999.90;;;13.70;99.90;;;;;;5053901;28;20260;-42
2021/04/28 03:45:55;;;;;;;1999.90;999.90;;;13.80;99.90;;;;;;5054169;28;20533;-40
2021/04/28 03:48:22;;;;;;;1999.90;999.90;;;13.90;99.90;;;;;;5053711;28;20537;-40
2021/04/28 03:50:49;;;;;;;1999.90;999.90;;;13.80;99.90;;;;;;5053742;28;20184;-43
2021/04/28 03:53:16;;;;;;;1999.90;999.90;;;13.70;99.90;;;;;;5053005;28;20181;-43
2021/04/28 03:55:43;;;;;;;1999.90;999.90;;;13.70;99.90;;;;;;5053618;28;20193;-43
2021/04/28 03:58:09;;;;;;;1999.90;999.90;;;13.70;99.90;;;;;;5053424;28;20632;-42
2021/04/28 04:00:36;;;;;;;1999.90;999.90;;;13.60;99.90;;;;;;5053605;28;20253;-40
2021/04/28 04:03:04;;;;;;;1999.90;999.90;;;13.60;99.90;;;;;;5053632;28;20222;-39
2021/04/28 04:05:32;;;;;;;1999.90;999.90;;;13.50;99.90;;;;;;5053611;28;20162;-39
2021/04/28 04:07:59;;;;;;;1999.90;999.90;;;13.50;99.90;;;;;;5052273;28;20257;-39
2021/04/28 04:10:26;;;;;;;1999.90;999.90;;;13.50;99.90;;;;;;5053359;28;20231;-39
2021/04/28 04:12:52;;;;;;;1999.90;999.90;;;13.50;99.90;;;;;;5053307;28;20544;-39
2021/04/28 04:15:19;;;;;;;1999.90;999.90;;;13.50;99.90;;;;;;5053233;28;20177;-39
2021/04/28 04:17:46;;;;;;;1999.90;999.90;;;13.50;99.90;;;;;;5053195;28;20180;-40
2021/04/28 04:20:13;;;;;;;1999.90;999.90;;;13.60;99.90;;;;;;5053256;28;20161;-39
2021/04/28 04:22:40;;;;;;;1999.90;999.90;;;13.60;99.90;;;;;;5053126;28;20169;-39
2021/04/28 04:25:08;;;;;;;1999.90;999.90;;;13.50;99.90;;;;;;5053070;28;20188;-39
2021/04/28 04:27:36;;;;;;;1999.90;999.90;;;13.50;99.90;;;;;;5053166;28;20507;-39
2021/04/28 04:30:09;;;;;;;1999.90;999.90;;;13.60;99.90;;;;;;5053068;28;20675;-39
2021/04/28 04:32:36;;;;;;;1999.90;999.90;;;13.50;99.90;;;;;;5053237;28;20686;-39
2021/04/28 04:35:07;;;;;;;1999.90;999.90;;;13.50;99.90;;;;;;5053012;28;20177;-39
2021/04/28 04:37:34;;;;;;;1999.90;999.90;;;13.50;99.90;;;;;;5053069;28;20639;-39
2021/04/28 04:40:01;;;;;;;1999.90;999.90;;;13.50;99.90;;;;;;5052846;28;20169;-39
2021/04/28 04:42:28;;;;;;;1999.90;999.90;;;13.50;99.90;;;;;;5052838;28;20542;-40
2021/04/28 04:44:55;;;;;;;1999.90;999.90;;;13.50;99.90;;;;;;5052855;28;20501;-40
2021/04/28 04:47:22;;;;;;;1999.90;999.90;;;13.50;99.90;;;;;;5052787;28;20172;-39
2021/04/28 04:49:48;;;;;;;1999.90;999.90;;;13.50;99.90;;;;;;5052542;28;20583;-40
2021/04/28 04:52:15;;;;;;;1999.90;999.90;;;13.50;99.90;;;;;;5052726;28;20165;-40
2021/04/28 04:54:42;;;;;;;1999.90;999.90;;;13.40;99.90;;;;;;5052486;28;20531;-40
2021/04/28 04:57:09;;;;;;;1999.90;999.90;;;13.40;99.90;;;;;;5052783;28;20256;-40
2021/04/28 04:59:36;;;;;;;1999.90;999.90;;;13.30;99.90;;;;;;5052450;28;20225;-40
2021/04/28 05:02:03;;;;;;;1999.90;999.90;;;13.30;99.90;;;;;;5052877;28;20516;-43
2021/04/28 05:04:29;;;;;;;1999.90;999.90;;;13.30;99.90;;;;;;5052889;28;20534;-39
2021/04/28 05:06:56;;;;;;;1999.90;999.90;;;13.20;99.90;;;;;;5056688;28;20199;-39
2021/04/28 05:09:23;;;;;;;1999.90;999.90;;;13.20;99.90;;;;;;5056577;28;20196;-39
2021/04/28 05:11:50;;;;;;;1999.90;999.90;;;13.10;99.90;;;;;;5056598;28;20523;-39
2021/04/28 05:14:17;;;;;;;1999.90;999.90;;;13.10;99.90;;;;;;5056580;28;20184;-39
2021/04/28 05:16:44;;;;;;;1999.90;999.90;;;13.10;99.90;;;;;;5056462;28;20168;-39
2021/04/28 05:19:11;;;;;;;1999.90;999.90;;;13.10;99.90;;;;;;5056514;28;20474;-41
2021/04/28 05:21:37;;;;;;;1999.90;999.90;;;13.10;99.90;;;;;;5056468;28;20199;-39
2021/04/28 05:24:05;;;;;;;1999.90;999.90;;;13.10;99.90;;;;;;5056245;28;20252;-40
2021/04/28 05:26:32;;;;;;;1999.90;999.90;;;13.10;99.90;;;;;;5056024;28;20177;-40
2021/04/28 05:28:59;;;;;;;1999.90;999.90;;;13.20;99.90;;;;;;5056152;28;20193;-40
2021/04/28 05:31:26;;;;;;;1999.90;999.90;;;13.20;99.90;;;;;;5056270;28;20169;-41
2021/04/28 05:33:52;;;;;;;1999.90;999.90;;;13.20;99.90;;;;;;5056398;28;20559;-40
2021/04/28 05:36:19;;;;;;;1999.90;999.90;;;13.20;99.90;;;;;;5056124;28;20211;-40
2021/04/28 05:38:46;;;;;;;1999.90;999.90;;;13.20;99.90;;;;;;5055886;28;20170;-40
2021/04/28 05:41:13;;;;;;;1999.90;999.90;;;13.20;99.90;;;;;;5055875;28;20576;-40
2021/04/28 05:43:40;;;;;;;1999.90;999.90;;;13.30;99.90;;;;;;5055615;28;20184;-40
2021/04/28 05:46:08;;;;;;;1999.90;999.90;;;13.30;99.90;;;;;;5055757;28;20181;-40
2021/04/28 05:48:35;;;;;;;1999.90;999.90;;;13.30;99.90;;;;;;5055521;28;20201;-44
2021/04/28 05:51:02;;;;;;;1999.90;999.90;;;13.30;99.90;;;;;;5055425;28;20268;-41
2021/04/28 05:53:29;;;;;;;1999.90;999.90;;;13.40;99.90;;;;;;5055484;28;20244;-41
2021/04/28 05:55:56;;;;;;;1999.90;999.90;;;13.40;99.90;;;;;;5054284;28;20201;-42
2021/04/28 05:58:23;;;;;;;1999.90;999.90;;;13.50;99.90;;;;;;5055244;28;20240;-44
2021/04/28 06:00:50;;;;;;;1999.90;999.90;;;13.50;99.90;;;;;;5054063;28;20180;-44
2021/04/28 06:03:16;;;;;;;1999.90;999.90;;;13.50;99.90;;;;;;5055639;28;20165;-41
2021/04/28 06:05:43;;;;;;;1999.90;999.90;;;13.50;99.90;;;;;;5054893;28;20204;-48
2021/04/28 06:08:12;;;;;;;1999.90;999.90;;;13.50;99.90;;;;;;5055163;28;20181;-41
2021/04/28 06:10:39;;;;;;;1999.90;999.90;;;13.60;99.90;;;;;;5054959;28;20189;-40
2021/04/28 06:13:06;;;;;;;1999.90;999.90;;;13.80;99.90;;;;;;5054526;28;20188;-48
2021/04/28 06:15:33;;;;;;;1999.90;999.90;;;13.90;99.90;;;;;;5055164;28;20643;-44
2021/04/28 06:17:59;;;;;;;1999.90;999.90;;;14.10;99.90;;;;;;5054395;28;20173;-44
2021/04/28 06:20:26;;;;;;;1999.90;999.90;;;14.20;99.90;;;;;;5055102;28;20254;-44
2021/04/28 06:22:53;;;;;;;1999.90;999.90;;;14.40;99.90;;;;;;5055160;28;20165;-44
2021/04/28 06:25:20;;;;;;;1999.90;999.90;;;14.40;99.90;;;;;;5055207;28;20188;-44
2021/04/28 06:27:46;;;;;;;1999.90;999.90;;;14.50;99.90;;;;;;5055112;28;20169;-44
2021/04/28 06:30:14;;;;;;;1999.90;999.90;;;14.60;99.90;;;;;;5054824;28;20695;-46
2021/04/28 06:32:41;;;;;;;1999.90;999.90;;;14.70;99.90;;;;;;5053800;28;20200;-43
2021/04/28 06:35:10;;;;;;;1999.90;999.90;;;14.70;99.90;;;;;;5053241;28;20185;-49
2021/04/28 06:37:38;;;;;;;1999.90;999.90;;;14.80;99.90;;;;;;5054589;28;20549;-41
2021/04/28 06:40:09;;;;;;;1999.90;999.90;;;14.80;99.90;;;;;;5054574;28;20173;-45
2021/04/28 06:42:36;;;;;;;1999.90;999.90;;;14.80;99.90;;;;;;5054671;28;20240;-40
2021/04/28 06:45:05;;;;;;;1999.90;999.90;;;14.80;99.90;;;;;;5053794;28;20166;-43
2021/04/28 06:47:32;;;;;;;1999.90;999.90;;;14.80;99.90;;;;;;5054328;28;20169;-42
2021/04/28 06:49:59;;;;;;;1999.90;999.90;;;14.80;99.90;;;;;;5054306;28;20217;-44
2021/04/28 06:52:26;;;;;;;1999.90;999.90;;;14.80;99.90;;;;;;5054596;28;20182;-40
2021/04/28 06:54:52;;;;;;;1999.90;999.90;;;14.80;99.90;;;;;;5054530;28;20162;-40
2021/04/28 06:57:20;;;;;;;1999.90;999.90;;;14.90;99.90;;;;;;5053745;28;20545;-42
2021/04/28 06:59:47;;;;;;;1999.90;999.90;;;15.00;99.90;;;;;;5054409;28;20274;-44
2021/04/28 07:02:14;;;;;;;1999.90;999.90;;;15.10;99.90;;;;;;5054488;28;20620;-45
2021/04/28 07:04:40;;;;;;;1999.90;999.90;;;15.10;99.90;;;;;;5054220;28;20165;-42
2021/04/28 07:07:07;;;;;;;1999.90;999.90;;;15.20;99.90;;;;;;5053296;28;20248;-44
2021/04/28 07:09:34;;;;;;;1999.90;999.90;;;15.20;99.90;;;;;;5053550;28;20311;-58
2021/04/28 07:12:01;;;;;;;1999.90;999.90;;;15.40;99.90;;;;;;5053944;28;20169;-43
2021/04/28 07:14:29;;;;;;;1999.90;999.90;;;15.50;99.90;;;;;;5053991;28;20231;-46
2021/04/28 07:16:56;;;;;;;1999.90;999.90;;;15.60;99.90;;;;;;5053538;28;20177;-38
2021/04/28 07:19:23;;;;;;;1999.90;999.90;;;15.80;99.90;;;;;;5053807;28;20646;-43
2021/04/28 07:21:50;;;;;;;1999.90;999.90;;;15.80;99.90;;;;;;5053788;28;20173;-42
2021/04/28 07:24:17;;;;;;;1999.90;999.90;;;15.90;99.90;;;;;;5052331;28;20173;-42
2021/04/28 07:26:43;;;;;;;1999.90;999.90;;;15.90;99.90;;;;;;5053956;28;20220;-46
2021/04/28 07:29:10;;;;;;;1999.90;999.90;;;16.00;99.90;;;;;;5052614;28;20302;-45
2021/04/28 07:31:37;;;;;;;1999.90;999.90;;;16.20;99.90;;;;;;5053443;28;20210;-51
2021/04/28 07:34:05;;;;;;;1999.90;999.90;;;16.40;99.90;;;;;;5053333;28;20177;-47
2021/04/28 07:36:31;;;;;;;1999.90;999.90;;;16.40;99.90;;;;;;5053411;28;20179;-44
2021/04/28 07:38:58;;;;;;;1999.90;999.90;;;16.60;99.90;;;;;;5053414;28;20169;-48
2021/04/28 07:41:25;;;;;;;1999.90;999.90;;;16.80;99.90;;;;;;5052967;28;20181;-50
2021/04/28 07:43:52;;;;;;;1999.90;999.90;;;17.20;99.90;;;;;;5053319;28;20272;-53
2021/04/28 07:46:19;;;;;;;1999.90;999.90;;;17.40;99.90;;;;;;5053260;28;20299;-45
2021/04/28 07:48:46;;;;;;;1999.90;999.90;;;17.40;99.90;;;;;;5052837;28;20675;-44
2021/04/28 07:51:13;;;;;;;1999.90;999.90;;;17.40;99.90;;;;;;5051716;28;20188;-59
2021/04/28 07:53:40;;;;;;;1999.90;999.90;;;17.50;99.90;;;;;;5051620;28;20212;-48
2021/04/28 07:56:06;;;;;;;1999.90;999.90;;;17.60;99.90;;;;;;5052831;28;20184;-47
2021/04/28 07:58:33;;;;;;;1999.90;999.90;;;18.30;99.90;;;;;;5052961;28;20215;-52
2021/04/28 08:01:00;;;;;;;1999.90;999.90;;;18.60;99.90;;;;;;5052836;28;20157;-50
2021/04/28 08:03:27;;;;;;;1999.90;999.90;;;18.50;99.90;;;;;;5050663;28;20787;-48
2021/04/28 08:05:53;;;;;;;1999.90;999.90;;;18.70;99.90;;;;;;5052653;28;20180;-49
2021/04/28 08:08:20;;;;;;;1999.90;999.90;;;18.90;99.90;;;;;;5052787;28;20181;-43
2021/04/28 08:10:47;;;;;;;1999.90;999.90;;;19.10;99.90;;;;;;5053055;28;20635;-42
2021/04/28 08:13:14;;;;;;;1999.90;999.90;;;19.30;99.50;;;;;;5052749;28;20261;-42
2021/04/28 08:15:41;;;;;;;1999.90;999.90;;;19.50;98.90;;;;;;5053065;28;20173;-45
2021/04/28 08:18:08;;;;;;;1999.90;999.90;;;19.40;98.90;;;;;;5053077;28;20306;-42
2021/04/28 08:20:38;;;;;;;1999.90;999.90;;;19.70;98.60;;;;;;5052556;28;20204;-43
2021/04/28 08:23:05;;;;;;;1999.90;999.90;;;20.00;98.00;;;;;;5052730;28;20609;-43
2021/04/28 08:25:32;;;;;;;1999.90;999.90;;;20.20;96.80;;;;;;5052908;28;20176;-46
2021/04/28 08:27:59;;;;;;;1999.90;999.90;;;20.10;96.20;;;;;;5052667;28;20635;-43
2021/04/28 08:30:26;;;;;;;1999.90;999.90;;;20.40;97.00;;;;;;5052580;28;20200;-42
2021/04/28 08:32:53;;;;;;;1999.90;999.90;;;20.60;95.10;;;;;;5052302;28;20177;-54
2021/04/28 08:35:20;;;;;;;1999.90;999.90;;;20.80;94.70;;;;;;5052580;28;20181;-46
2021/04/28 08:37:48;;;;;;;1999.90;999.90;;;21.00;94.80;;;;;;5051204;28;20177;-50
2021/04/28 08:40:19;;;;;;;1999.90;999.90;;;21.10;94.00;;;;;;5050470;28;20216;-47
2021/04/28 08:42:47;;;;;;;1999.90;999.90;;;20.80;93.70;;;;;;5052191;28;20158;-48
2021/04/28 08:45:16;;;;;;;1999.90;999.90;;;20.90;93.70;;;;;;5052264;28;20176;-49
2021/04/28 08:47:44;;;;;;;1999.90;999.90;;;20.90;94.40;;;;;;5051477;28;20165;-47
2021/04/28 08:50:12;;;;;;;1999.90;999.90;;;21.10;93.60;;;;;;5051033;28;20294;-45
2021/04/28 08:52:40;;;;;;;1999.90;999.90;;;21.00;93.60;;;;;;5051560;28;20184;-47
2021/04/28 08:55:08;;;;;;;1999.90;999.90;;;21.40;93.70;;;;;;5051383;28;20185;-46
2021/04/28 08:57:36;;;;;;;1999.90;999.90;;;21.80;92.40;;;;;;5052070;28;20173;-45
2021/04/28 09:00:06;;;;;;;1999.90;999.90;;;22.00;92.50;;;;;;5051430;28;20208;-45
2021/04/28 09:02:49;;;;;;;1999.90;999.90;;;21.80;91.20;;;;;;5051276;28;20246;-44
2021/04/28 09:05:16;;;;;;;1999.90;999.90;;;22.10;90.90;;;;;;5051365;28;20169;-45
2021/04/28 09:07:45;;;;;;;1999.90;999.90;;;22.40;91.80;;;;;;5044710;28;20185;-49
2021/04/28 09:10:23;;;;;;;1999.90;999.90;;;22.30;91.10;;;;;;5050356;28;20664;-43
2021/04/28 09:13:00;;;;;;;1999.90;999.90;;;22.30;90.60;;;;;;5051583;28;20173;-50
2021/04/28 09:15:35;;;;;;;1999.90;999.90;;;22.60;91.40;;;;;;5050845;28;20285;-48
2021/04/28 09:18:04;;;;;;;1999.90;999.90;;;22.80;90.80;;;;;;5051101;28;20165;-45
2021/04/28 09:20:53;;;;;;;1999.90;999.90;;;23.00;90.60;;;;;;5051710;28;20729;-46
2021/04/28 09:23:19;;;;;;;1999.90;999.90;;;23.10;88.20;;;;;;5050236;28;20185;-48
2021/04/28 09:25:51;;;;;;;1999.90;999.90;;;22.80;87.30;;;;;;5049557;28;20177;-44
2021/04/28 09:28:29;;;;;;;1999.90;999.90;;;22.10;90.20;;;;;;5051745;28;20172;-44
2021/04/28 09:31:08;;;;;;;1999.90;999.90;;;22.30;91.30;;;;;;5050855;28;20177;-44
2021/04/28 09:33:55;;;;;;;1999.90;999.90;;;23.00;89.80;;;;;;5051241;28;20682;-43
2021/04/28 09:36:34;;;;;;;1999.90;999.90;;;23.30;87.90;;;;;;5050291;28;20173;-42
2021/04/28 09:39:10;;;;;;;1999.90;999.90;;;23.60;84.50;;;;;;5051210;28;20157;-43
2021/04/28 09:41:39;;;;;;;1999.90;999.90;;;23.60;84.50;;;;;;5051197;28;20169;-45
2021/04/28 09:44:23;;;;;;;1999.90;999.90;;;23.70;84.70;;;;;;5049793;28;21269;-44
2021/04/28 09:47:06;;;;;;;1999.90;999.90;;;24.30;85.10;;;;;;5050278;28;20170;-51
2021/04/28 09:49:47;;;;;;;1999.90;999.90;;;24.70;80.70;;;;;;5051153;28;20201;-46
2021/04/28 09:52:16;;;;;;;1999.90;999.90;;;24.60;77.50;;;;;;5051522;28;20164;-45
2021/04/28 09:54:45;;;;;;;1999.90;999.90;;;24.20;78.50;;;;;;5053878;28;20173;-44
2021/04/28 09:57:15;;;;;;;1999.90;999.90;;;24.10;81.40;;;;;;5054459;28;20648;-48
2021/04/28 09:59:48;;;;;;;1999.90;999.90;;;24.00;78.70;;;;;;5053692;28;20312;-46
2021/04/28 10:02:28;;;;;;;1999.90;999.90;;;23.90;80.60;;;;;;5054102;28;20200;-54
2021/04/28 10:05:14;;;;;;;1999.90;999.90;;;24.10;79.80;;;;;;5053879;28;20181;-61
2021/04/28 10:07:46;;;;;;;1999.90;999.90;;;24.40;79.10;;;;;;5054587;28;20157;-56
2021/04/28 10:10:15;;;;;;;1999.90;999.90;;;24.50;78.00;;;;;;5053674;28;20201;-60
2021/04/28 10:12:41;;;;;;;1999.90;999.90;;;24.00;79.10;;;;;;5054323;28;20173;-52
2021/04/28 10:15:09;;;;;;;1999.90;999.90;;;23.90;76.60;;;;;;5054400;28;20238;-50
2021/04/28 10:17:36;;;;;;;1999.90;999.90;;;23.40;77.10;;;;;;5054338;28;20165;-49
2021/04/28 10:20:07;;;;;;;1999.90;999.90;;;23.20;77.60;;;;;;5053870;28;20169;-43
2021/04/28 10:22:35;;;;;;;1999.90;999.90;;;22.80;78.90;;;;;;5053812;28;20181;-43
2021/04/28 10:25:05;;;;;;;1999.90;999.90;;;22.50;82.10;;;;;;5054651;28;20161;-44
2021/04/28 10:27:32;;;;;;;1999.90;999.90;;;22.60;80.90;;;;;;5054503;28;20156;-40
2021/04/28 10:30:00;;;;;;;1999.90;999.90;;;22.60;82.40;;;;;;5054237;28;20200;-53
2021/04/28 10:32:28;;;;;;;1999.90;999.90;;;22.50;82.90;;;;;;5054514;28;20569;-53
2021/04/28 10:35:09;;;;;;;1999.90;999.90;;;22.90;81.70;;;;;;5054062;28;20169;-43
2021/04/28 10:37:38;;;;;;;1999.90;999.90;;;23.10;79.50;;;;;;5054620;28;20215;-45
2021/04/28 10:40:16;;;;;;;1999.90;999.90;;;23.50;78.90;;;;;;5054867;28;20166;-51
2021/04/28 10:42:44;;;;;;;1999.90;999.90;;;23.40;77.80;;;;;;5053328;28;20250;-45
2021/04/28 10:45:37;;;;;;;1999.90;999.90;;;23.40;77.50;;;;;;5053741;28;20170;-52
2021/04/28 10:48:11;;;;;;;1999.90;999.90;;;22.80;77.20;;;;;;5053322;28;20164;-48
2021/04/28 10:50:45;;;;;;;1999.90;999.90;;;22.40;79.90;;;;;;5054386;28;20192;-54
2021/04/28 10:53:20;;;;;;;1999.90;999.90;;;22.00;82.30;;;;;;5052529;28;20167;-47
2021/04/28 10:56:08;;;;;;;1999.90;999.90;;;22.00;82.60;;;;;;5053980;28;20416;-42
2021/04/28 10:58:39;;;;;;;1999.90;999.90;;;22.30;83.00;;;;;;5053957;28;20209;-47
2021/04/28 11:01:06;;;;;;;1999.90;999.90;;;22.50;81.60;;;;;;5054021;28;20208;-39
2021/04/28 11:03:48;;;;;;;1999.90;999.90;;;22.70;81.30;;;;;;5053386;28;20181;-43
2021/04/28 11:06:25;;;;;;;1999.90;999.90;;;23.20;78.30;;;;;;5052322;28;20158;-44
2021/04/28 11:08:55;;;;;;;1999.90;999.90;;;23.10;76.50;;;;;;5053451;28;20254;-44
2021/04/28 11:11:34;;;;;;;1999.90;999.90;;;23.00;78.70;;;;;;5053387;28;20172;-44
2021/04/28 11:14:20;;;;;;;1999.90;999.90;;;23.20;78.00;;;;;;5053412;28;20235;-45
2021/04/28 11:16:52;;;;;;;1999.90;999.90;;;23.50;76.80;;;;;;5053196;28;20180;-43
2021/04/28 11:19:36;;;;;;;1999.90;999.90;;;23.80;75.30;;;;;;5053000;28;20173;-44
2021/04/28 11:22:10;;;;;;;1999.90;999.90;;;24.10;75.20;;;;;;5053544;28;20538;-50
2021/04/28 11:24:55;;;;;;;1999.90;999.90;;;24.40;72.10;;;;;;5053516;28;20176;-46
2021/04/28 11:27:57;;;;;;;1999.90;999.90;;;24.10;71.80;;;;;;5053919;28;20687;-44
2021/04/28 11:30:34;;;;;;;1999.90;999.90;;;23.70;74.60;;;;;;5053191;28;20200;-46
2021/04/28 11:33:28;;;;;;;1999.90;999.90;;;23.70;75.20;;;;;;5053737;28;20172;-47
2021/04/28 11:35:55;;;;;;;1999.90;999.90;;;23.60;76.00;;;;;;5052804;28;20203;-42
2021/04/28 11:38:26;;;;;;;1999.90;999.90;;;23.30;76.50;;;;;;5053068;28;20173;-43
2021/04/28 11:41:03;;;;;;;1999.90;999.90;;;23.10;77.50;;;;;;5053566;28;20185;-42
2021/04/28 11:43:43;;;;;;;1999.90;999.90;;;23.00;78.70;;;;;;5052229;28;20161;-48
2021/04/28 11:46:31;;;;;;;1999.90;999.90;;;22.90;79.00;;;;;;5052992;28;20226;-45
2021/04/28 11:49:03;;;;;;;1999.90;999.90;;;22.90;80.60;;;;;;5052551;28;20195;-43
2021/04/28 11:51:36;;;;;;;1999.90;999.90;;;22.90;79.90;;;;;;5052686;28;20185;-45
2021/04/28 11:54:05;;;;;;;1999.90;999.90;;;22.80;78.80;;;;;;5052480;28;20180;-44
2021/04/28 11:56:46;;;;;;;1999.90;999.90;;;22.60;80.20;;;;;;5052794;28;20226;-45
2021/04/28 11:59:26;;;;;;;1999.90;999.90;;;22.70;80.10;;;;;;5041431;28;20213;-45
2021/04/28 12:02:11;;;;;;;1999.90;999.90;;;22.70;79.40;;;;;;5052686;28;20169;-44
2021/04/28 12:04:48;;;;;;;1999.90;999.90;;;22.60;79.30;;;;;;5052575;28;20527;-48
2021/04/28 12:07:17;;;;;;;1999.90;999.90;;;22.50;79.50;;;;;;5052756;28;20161;-52
2021/04/28 12:09:51;;;;;;;1999.90;999.90;;;22.30;80.40;;;;;;5052494;28;20212;-51